createdAt,value
2018-11-28T00:00:43.803Z,17.80
2018-11-28T00:03:11.276Z,15.83
2018-11-28T00:05:38.652Z,18.83
2018-11-28T00:08:06.126Z,18.13
2018-11-28T00:10:33.750Z,17.57
2018-11-28T00:13:01.261Z,18.43
2018-11-28T00:15:28.732Z,18.80
2018-11-28T00:17:56.179Z,18.13
2018-11-28T00:20:23.652Z,17.60
2018-11-28T00:22:51.198Z,18.87
2018-11-28T00:25:18.996Z,17.40
2018-11-28T00:27:46.535Z,18.37
2018-11-28T00:30:18.714Z,17.90
2018-11-28T00:32:46.255Z,18.27
2018-11-28T00:35:14.862Z,17.83
2018-11-28T00:37:42.300Z,19.67
2018-11-28T00:40:13.663Z,20.50
2018-11-28T00:42:41.395Z,18.27
2018-11-28T00:45:13.824Z,18.13
2018-11-28T00:47:41.344Z,17.90
2018-11-28T00:50:10.205Z,18.20
2018-11-28T00:52:37.880Z,19.77
2018-11-28T00:55:07.349Z,19.17
2018-11-28T00:57:34.947Z,17.93
2018-11-28T01:00:02.541Z,17.27
2018-11-28T01:02:29.981Z,17.10
2018-11-28T01:04:57.412Z,18.40
2018-11-28T01:07:24.833Z,18.37
2018-11-28T01:09:52.325Z,18.20
2018-11-28T01:12:19.720Z,16.93
2018-11-28T01:14:47.108Z,17.90
2018-11-28T01:17:14.523Z,17.80
2018-11-28T01:19:41.920Z,17.13
2018-11-28T01:22:09.422Z,17.07
2018-11-28T01:24:36.836Z,16.67
2018-11-28T01:27:04.783Z,17.80
2018-11-28T01:29:32.216Z,17.30
2018-11-28T01:31:59.658Z,17.20
2018-11-28T01:34:27.093Z,18.23
2018-11-28T01:36:54.550Z,18.13
2018-11-28T01:39:21.944Z,17.17
2018-11-28T01:41:49.444Z,19.20
2018-11-28T01:44:16.973Z,18.63
2018-11-28T01:46:44.496Z,17.23
2018-11-28T01:49:11.892Z,17.63
2018-11-28T01:51:39.376Z,19.00
2018-11-28T01:54:06.941Z,17.50
2018-11-28T01:56:34.517Z,17.87
2018-11-28T01:59:01.896Z,19.43
2018-11-28T02:01:29.340Z,19.47
2018-11-28T02:03:56.835Z,19.30
2018-11-28T02:06:24.408Z,18.00
2018-11-28T02:08:51.806Z,19.20
2018-11-28T02:11:21.992Z,18.33
2018-11-28T02:13:49.404Z,18.37
2018-11-28T02:16:16.880Z,18.60
2018-11-28T02:18:44.331Z,19.03
2018-11-28T02:21:11.716Z,19.47
2018-11-28T02:23:39.346Z,20.20
2018-11-28T02:26:06.864Z,19.67
2018-11-28T02:28:34.376Z,18.30
2018-11-28T02:31:01.968Z,18.17
2018-11-28T02:33:29.441Z,18.87
2018-11-28T02:37:27.869Z,19.70
2018-11-28T02:39:55.456Z,17.83
2018-11-28T02:42:22.860Z,17.70
2018-11-28T02:44:50.393Z,17.43
2018-11-28T02:47:17.838Z,19.60
2018-11-28T02:49:45.304Z,18.90
2018-11-28T02:52:12.728Z,20.63
2018-11-28T02:54:40.205Z,19.90
2018-11-28T02:57:07.615Z,19.03
2018-11-28T02:59:35.099Z,18.97
2018-11-28T03:02:02.616Z,19.50
2018-11-28T03:04:30.105Z,21.40
2018-11-28T03:06:57.533Z,17.60
2018-11-28T03:09:25.072Z,19.20
2018-11-28T03:11:52.595Z,18.40
2018-11-28T03:14:20.075Z,19.27
2018-11-28T03:16:47.519Z,19.27
2018-11-28T03:19:14.977Z,18.80
2018-11-28T03:21:42.452Z,20.47
2018-11-28T03:24:09.897Z,19.43
2018-11-28T03:26:37.329Z,19.03
2018-11-28T03:29:04.844Z,17.10
2018-11-28T03:31:32.495Z,19.60
2018-11-28T03:33:59.905Z,19.00
2018-11-28T03:36:27.503Z,21.60
2018-11-28T03:38:54.940Z,19.53
2018-11-28T03:41:22.388Z,19.40
2018-11-28T03:43:49.796Z,19.80
2018-11-28T03:46:17.219Z,20.50
2018-11-28T03:48:44.589Z,19.53
2018-11-28T03:51:12.071Z,19.17
2018-11-28T03:53:39.461Z,21.00
2018-11-28T03:56:06.927Z,20.13
2018-11-28T03:58:34.423Z,22.27
2018-11-28T04:01:01.852Z,20.83
2018-11-28T04:03:29.375Z,20.47
2018-11-28T04:05:56.924Z,19.60
2018-11-28T04:08:24.344Z,20.30
2018-11-28T04:10:51.819Z,18.13
2018-11-28T04:13:19.271Z,19.47
2018-11-28T04:15:46.656Z,17.73
2018-11-28T04:18:14.076Z,20.53
2018-11-28T04:20:41.587Z,19.80
2018-11-28T04:23:09.007Z,20.50
2018-11-28T04:25:36.379Z,19.63
2018-11-28T04:28:03.880Z,19.20
2018-11-28T04:30:31.409Z,20.43
2018-11-28T04:32:58.976Z,17.60
2018-11-28T04:35:26.393Z,20.17
2018-11-28T04:37:53.814Z,18.37
2018-11-28T04:40:21.571Z,19.00
2018-11-28T04:42:49.401Z,18.50
2018-11-28T04:45:21.710Z,20.40
2018-11-28T04:47:50.005Z,17.50
2018-11-28T04:50:17.484Z,17.13
2018-11-28T04:52:45.024Z,19.37
2018-11-28T04:55:19.262Z,16.80
2018-11-28T04:57:46.953Z,17.63
2018-11-28T05:00:17.554Z,17.63
2018-11-28T05:02:45.031Z,17.43
2018-11-28T05:05:12.467Z,17.33
2018-11-28T05:07:40.545Z,18.80
2018-11-28T05:10:10.293Z,17.77
2018-11-28T05:12:37.764Z,14.83
2018-11-28T05:15:13.653Z,17.20
2018-11-28T05:17:41.381Z,17.80
2018-11-28T05:20:10.195Z,18.10
2018-11-28T05:22:37.758Z,16.10
2018-11-28T05:25:07.556Z,17.23
2018-11-28T05:27:35.026Z,17.73
2018-11-28T05:30:02.926Z,17.40
2018-11-28T05:32:30.361Z,16.60
2018-11-28T05:34:57.822Z,18.47
2018-11-28T05:37:25.246Z,17.50
2018-11-28T05:39:52.725Z,17.10
2018-11-28T05:42:20.190Z,16.80
2018-11-28T05:44:47.710Z,17.90
2018-11-28T05:47:15.127Z,18.20
2018-11-28T05:49:42.581Z,16.87
2018-11-28T05:52:10.233Z,16.20
2018-11-28T05:54:37.715Z,17.00
2018-11-28T05:57:05.714Z,16.80
2018-11-28T05:59:33.239Z,18.10
2018-11-28T06:02:00.759Z,16.33
2018-11-28T06:04:28.179Z,17.27
2018-11-28T06:06:55.651Z,16.80
2018-11-28T06:09:23.097Z,17.20
2018-11-28T06:11:50.535Z,17.57
2018-11-28T06:14:18.079Z,16.30
2018-11-28T06:16:45.523Z,17.97
2018-11-28T06:19:12.934Z,18.10
2018-11-28T06:21:40.416Z,16.97
2018-11-28T06:24:07.841Z,17.90
2018-11-28T06:26:35.349Z,16.60
2018-11-28T06:29:02.765Z,17.20
2018-11-28T06:31:30.279Z,17.50
2018-11-28T06:33:57.671Z,16.30
2018-11-28T06:36:25.105Z,17.13
2018-11-28T06:38:52.639Z,16.97
2018-11-28T06:41:20.070Z,18.93
2018-11-28T06:43:47.507Z,17.50
2018-11-28T06:46:15.015Z,16.80
2018-11-28T06:48:42.467Z,18.33
2018-11-28T06:51:09.929Z,16.57
2018-11-28T06:53:37.375Z,17.90
2018-11-28T06:56:04.915Z,16.60
2018-11-28T06:58:32.491Z,15.97
2018-11-28T07:01:00.023Z,18.30
2018-11-28T07:03:27.507Z,17.77
2018-11-28T07:05:54.957Z,17.27
2018-11-28T07:08:22.410Z,18.43
2018-11-28T07:10:49.989Z,18.83
2018-11-28T07:13:17.500Z,18.40
2018-11-28T07:15:44.946Z,17.83
2018-11-28T07:18:23.910Z,20.27
2018-11-28T07:20:51.426Z,18.87
2018-11-28T07:23:18.926Z,19.20
2018-11-28T07:25:46.396Z,18.60
2018-11-28T07:28:13.932Z,17.27
2018-11-28T07:30:41.398Z,16.37
2018-11-28T07:33:10.451Z,19.93
2018-11-28T07:35:37.420Z,19.07
2018-11-28T07:38:05.592Z,19.77
2018-11-28T07:40:33.128Z,17.37
2018-11-28T07:43:10.631Z,17.30
2018-11-28T07:45:42.547Z,19.43
2018-11-28T07:48:10.002Z,20.33
2018-11-28T07:50:37.508Z,18.20
2018-11-28T07:53:05.342Z,18.70
2018-11-28T07:55:32.734Z,20.90
2018-11-28T07:58:00.190Z,19.17
2018-11-28T08:00:27.796Z,19.63
2018-11-28T08:02:55.361Z,20.33
2018-11-28T08:05:22.920Z,20.20
2018-11-28T08:07:50.412Z,16.97
2018-11-28T08:10:26.252Z,19.70
2018-11-28T08:12:56.992Z,20.50
2018-11-28T08:15:24.531Z,19.10
2018-11-28T08:17:51.928Z,20.90
2018-11-28T08:20:19.558Z,19.07
2018-11-28T08:22:47.050Z,18.57
2018-11-28T08:25:15.674Z,19.43
2018-11-28T08:27:44.260Z,19.20
2018-11-28T08:30:14.422Z,19.70
2018-11-28T08:32:42.012Z,18.43
2018-11-28T08:35:10.232Z,19.70
2018-11-28T08:37:37.679Z,20.13
2018-11-28T08:40:08.946Z,20.80
2018-11-28T08:42:36.386Z,21.50
2018-11-28T08:45:04.254Z,20.73
2018-11-28T08:47:31.698Z,19.07
2018-11-28T08:49:59.120Z,19.67
2018-11-28T08:52:26.612Z,17.73
2018-11-28T08:54:54.048Z,20.70
2018-11-28T08:57:21.656Z,22.87
2018-11-28T08:59:49.126Z,20.00
2018-11-28T09:02:16.620Z,20.40
2018-11-28T09:04:44.319Z,20.03
2018-11-28T09:07:11.785Z,19.50
2018-11-28T09:09:39.173Z,20.97
2018-11-28T09:12:06.727Z,19.03
2018-11-28T09:14:34.153Z,20.37
2018-11-28T09:17:01.714Z,19.47
2018-11-28T09:19:29.165Z,19.83
2018-11-28T09:21:56.642Z,19.03
2018-11-28T09:24:24.032Z,19.67
2018-11-28T09:26:51.488Z,24.00
2018-11-28T09:29:18.900Z,19.47
2018-11-28T09:31:46.350Z,18.70
2018-11-28T09:34:13.796Z,19.97
2018-11-28T09:36:41.199Z,19.37
2018-11-28T09:39:08.673Z,19.63
2018-11-28T09:41:36.284Z,20.10
2018-11-28T09:44:03.779Z,19.80
2018-11-28T09:46:31.206Z,19.40
2018-11-28T09:48:58.988Z,19.00
2018-11-28T09:51:26.406Z,20.47
2018-11-28T09:53:53.823Z,18.13
2018-11-28T09:56:21.384Z,19.00
2018-11-28T09:58:48.952Z,19.60
2018-11-28T10:01:16.439Z,18.90
2018-11-28T10:03:43.916Z,19.70
2018-11-28T10:06:11.370Z,20.20
2018-11-28T10:08:38.944Z,18.93
2018-11-28T10:11:06.416Z,19.67
2018-11-28T10:13:33.842Z,19.00
2018-11-28T10:16:01.906Z,17.50
2018-11-28T10:18:28.763Z,19.40
2018-11-28T10:20:56.176Z,19.70
2018-11-28T10:23:23.572Z,17.50
2018-11-28T10:25:51.102Z,19.93
2018-11-28T10:28:18.723Z,17.87
2018-11-28T10:30:46.233Z,18.90
2018-11-28T10:33:13.653Z,18.03
2018-11-28T10:35:41.353Z,19.60
2018-11-28T10:38:08.978Z,19.40
2018-11-28T10:40:37.129Z,19.10
2018-11-28T10:43:05.443Z,18.80
2018-11-28T10:45:32.965Z,17.60
2018-11-28T10:48:00.483Z,18.20
2018-11-28T10:50:27.962Z,18.67
2018-11-28T10:52:55.474Z,17.87
2018-11-28T10:55:24.110Z,16.33
2018-11-28T10:57:51.643Z,19.30
2018-11-28T11:00:25.841Z,16.53
2018-11-28T11:02:59.064Z,18.20
2018-11-28T11:05:32.318Z,17.10
2018-11-28T11:08:05.588Z,17.60
2018-11-28T11:10:38.669Z,17.83
2018-11-28T11:13:11.857Z,17.60
2018-11-28T11:15:39.454Z,17.13
2018-11-28T11:18:10.699Z,17.80
2018-11-28T11:20:37.561Z,18.57
2018-11-28T11:23:06.258Z,16.67
2018-11-28T11:25:33.951Z,17.00
2018-11-28T11:28:01.472Z,17.17
2018-11-28T11:30:29.045Z,16.03
2018-11-28T11:32:56.744Z,16.83
2018-11-28T11:35:24.231Z,17.40
2018-11-28T11:37:51.634Z,15.17
2018-11-28T11:40:19.139Z,18.00
2018-11-28T11:42:46.537Z,17.20
2018-11-28T11:45:14.989Z,18.20
2018-11-28T11:47:42.742Z,17.67
2018-11-28T11:50:14.295Z,15.97
2018-11-28T11:52:41.811Z,17.23
2018-11-28T11:55:11.163Z,17.50
2018-11-28T11:57:38.370Z,17.10
2018-11-28T12:00:11.257Z,17.40
2018-11-28T12:02:39.420Z,15.40
2018-11-28T12:05:08.609Z,15.53
2018-11-28T12:07:36.453Z,16.50
2018-11-28T12:10:09.052Z,16.00
2018-11-28T12:12:35.370Z,14.80
2018-11-28T12:15:03.044Z,16.63
2018-11-28T12:17:30.691Z,15.57
2018-11-28T12:19:58.116Z,17.30
2018-11-28T12:22:25.701Z,16.70
2018-11-28T12:24:53.137Z,16.40
2018-11-28T12:27:20.744Z,16.73
2018-11-28T12:29:48.279Z,16.27
2018-11-28T12:32:15.753Z,15.30
2018-11-28T12:34:43.269Z,15.20
2018-11-28T12:37:10.719Z,14.80
2018-11-28T12:39:38.258Z,14.23
2018-11-28T12:42:06.037Z,15.50
2018-11-28T12:44:33.441Z,14.53
2018-11-28T12:47:00.883Z,15.10
2018-11-28T12:49:28.419Z,16.53
2018-11-28T12:51:55.880Z,15.50
2018-11-28T12:54:23.326Z,14.90
2018-11-28T12:56:50.799Z,15.80
2018-11-28T12:59:18.395Z,14.43
2018-11-28T13:01:45.794Z,15.93
2018-11-28T13:04:13.376Z,15.33
2018-11-28T13:06:40.829Z,16.87
2018-11-28T13:09:08.454Z,16.17
2018-11-28T13:11:36.311Z,16.30
2018-11-28T13:14:03.850Z,15.57
2018-11-28T13:16:31.304Z,14.33
2018-11-28T13:18:58.716Z,14.70
2018-11-28T13:21:26.213Z,14.10
2018-11-28T13:23:53.656Z,15.80
2018-11-28T13:26:21.192Z,15.73
2018-11-28T13:28:48.628Z,15.40
2018-11-28T13:31:16.156Z,16.10
2018-11-28T13:33:43.612Z,14.70
2018-11-28T13:36:11.075Z,15.70
2018-11-28T13:38:38.653Z,14.83
2018-11-28T13:41:06.309Z,15.40
2018-11-28T13:43:33.914Z,15.60
2018-11-28T13:46:07.060Z,14.30
2018-11-28T13:48:29.310Z,16.00
2018-11-28T13:50:56.829Z,16.17
2018-11-28T13:53:24.286Z,14.30
2018-11-28T13:56:57.447Z,15.23
2018-11-28T13:58:23.203Z,14.10
2018-11-28T14:00:50.629Z,14.13
2018-11-28T14:03:18.203Z,15.07
2018-11-28T14:05:45.656Z,15.57
2018-11-28T14:08:13.083Z,15.97
2018-11-28T14:10:40.548Z,14.40
2018-11-28T14:13:08.146Z,13.50
2018-11-28T14:15:35.595Z,16.07
2018-11-28T14:18:06.715Z,14.60
2018-11-28T14:20:34.135Z,14.93
2018-11-28T14:23:01.613Z,15.07
2018-11-28T14:25:29.157Z,15.10
2018-11-28T14:27:56.730Z,13.90
2018-11-28T14:30:25.250Z,14.90
2018-11-28T14:32:52.349Z,15.20
2018-11-28T14:35:20.767Z,15.13
2018-11-28T14:37:48.259Z,14.43
2018-11-28T14:40:17.039Z,14.77
2018-11-28T14:42:45.936Z,15.27
2018-11-28T14:45:14.656Z,13.37
2018-11-28T14:47:42.388Z,14.00
2018-11-28T14:50:12.995Z,13.57
2018-11-28T14:52:40.515Z,13.77
2018-11-28T14:55:12.387Z,13.27
2018-11-28T14:57:40.253Z,13.03
2018-11-28T15:00:12.321Z,14.50
2018-11-28T15:02:39.850Z,14.53
2018-11-28T15:05:19.415Z,14.90
2018-11-28T15:07:47.329Z,12.70
2018-11-28T15:10:15.512Z,15.27
2018-11-28T15:12:43.299Z,13.13
2018-11-28T15:15:10.794Z,13.97
2018-11-28T15:17:38.260Z,14.50
2018-11-28T15:20:07.312Z,13.13
2018-11-28T15:22:34.834Z,13.90
2018-11-28T15:25:03.720Z,13.43
2018-11-28T15:27:31.274Z,14.53
2018-11-28T15:29:59.346Z,13.20
2018-11-28T15:32:26.875Z,13.83
2018-11-28T15:34:57.897Z,14.60
2018-11-28T15:37:21.845Z,13.57
2018-11-28T15:39:49.368Z,14.10
2018-11-28T15:42:16.965Z,14.33
2018-11-28T15:44:44.368Z,13.93
2018-11-28T15:47:11.812Z,14.70
2018-11-28T15:49:39.257Z,13.30
2018-11-28T15:52:06.748Z,14.33
2018-11-28T15:54:34.164Z,13.87
2018-11-28T15:57:01.972Z,14.00
2018-11-28T15:59:29.558Z,14.73
2018-11-28T16:01:57.023Z,15.40
2018-11-28T16:04:24.449Z,14.30
2018-11-28T16:06:52.008Z,17.00
2018-11-28T16:09:25.017Z,15.20
2018-11-28T16:11:52.485Z,16.00
2018-11-28T16:14:20.828Z,16.67
2018-11-28T16:16:48.395Z,13.90
2018-11-28T16:19:15.801Z,15.30
2018-11-28T16:21:43.236Z,15.03
2018-11-28T16:24:10.753Z,15.73
2018-11-28T16:26:38.484Z,15.83
2018-11-28T16:29:05.924Z,13.30
2018-11-28T16:31:33.404Z,15.37
2018-11-28T16:34:00.793Z,14.43
2018-11-28T16:36:28.417Z,14.70
2018-11-28T16:38:55.953Z,15.03
2018-11-28T16:41:23.368Z,15.03
2018-11-28T16:43:51.002Z,16.17
2018-11-28T16:46:18.441Z,16.30
2018-11-28T16:48:45.842Z,15.77
2018-11-28T16:51:13.322Z,17.90
2018-11-28T16:53:40.832Z,16.60
2018-11-28T16:56:08.450Z,16.97
2018-11-28T16:58:35.944Z,16.57
2018-11-28T17:01:03.610Z,17.03
2018-11-28T17:03:31.022Z,16.77
2018-11-28T17:05:58.614Z,16.00
2018-11-28T17:08:26.028Z,17.33
2018-11-28T17:10:53.512Z,17.43
2018-11-28T17:13:21.064Z,18.67
2018-11-28T17:15:48.527Z,16.50
2018-11-28T17:18:15.949Z,15.63
2018-11-28T17:20:43.401Z,15.50
2018-11-28T17:23:10.848Z,15.83
2018-11-28T17:25:38.575Z,15.77
2018-11-28T17:28:06.192Z,16.00
2018-11-28T17:30:33.998Z,14.57
2018-11-28T17:33:01.412Z,15.27
2018-11-28T17:35:28.861Z,14.03
2018-11-28T17:37:56.318Z,15.47
2018-11-28T17:40:25.467Z,15.23
2018-11-28T17:42:54.665Z,15.00
2018-11-28T17:45:22.668Z,16.13
2018-11-28T17:47:50.407Z,14.83
2018-11-28T17:50:22.121Z,15.50
2018-11-28T17:52:56.400Z,14.77
2018-11-28T17:55:24.755Z,15.33
2018-11-28T17:57:52.328Z,14.53
2018-11-28T18:00:19.902Z,14.50
2018-11-28T18:02:47.404Z,15.30
2018-11-28T18:05:14.862Z,13.63
2018-11-28T18:07:42.315Z,15.07
2018-11-28T18:10:13.646Z,13.80
2018-11-28T18:12:52.408Z,13.87
2018-11-28T18:15:20.355Z,14.27
2018-11-28T18:17:47.778Z,12.77
2018-11-28T18:20:15.560Z,15.30
2018-11-28T18:22:43.047Z,14.60
2018-11-28T18:25:10.550Z,15.50
2018-11-28T18:27:38.099Z,13.80
2018-11-28T18:30:07.500Z,15.17
2018-11-28T18:32:34.939Z,13.77
2018-11-28T18:35:02.393Z,14.23
2018-11-28T18:37:29.954Z,14.50
2018-11-28T18:39:57.400Z,15.10
2018-11-28T18:42:24.831Z,13.60
2018-11-28T18:44:52.427Z,15.20
2018-11-28T18:47:19.884Z,13.53
2018-11-28T18:49:47.428Z,13.50
2018-11-28T18:52:15.041Z,14.23
2018-11-28T18:54:42.435Z,14.17
2018-11-28T18:57:09.923Z,13.80
2018-11-28T18:59:37.379Z,13.63
2018-11-28T19:02:05.780Z,14.93
2018-11-28T19:04:33.235Z,14.60
2018-11-28T19:07:00.763Z,13.13
2018-11-28T19:09:33.798Z,13.87
2018-11-28T19:12:01.244Z,14.73
2018-11-28T19:14:28.672Z,14.67
2018-11-28T19:16:56.253Z,14.37
2018-11-28T19:19:23.869Z,14.17
2018-11-28T19:21:51.353Z,14.40
2018-11-28T19:24:18.768Z,13.93
2018-11-28T19:26:46.240Z,14.03
2018-11-28T19:29:13.710Z,13.30
2018-11-28T19:31:41.321Z,14.17
2018-11-28T19:34:08.759Z,13.77
2018-11-28T19:36:36.260Z,12.73
2018-11-28T19:39:06.568Z,14.00
2018-11-28T19:41:34.155Z,13.30
2018-11-28T19:44:01.743Z,13.40
2018-11-28T19:46:29.322Z,14.87
2018-11-28T19:48:57.010Z,14.40
2018-11-28T19:51:24.995Z,13.10
2018-11-28T19:53:52.764Z,14.87
2018-11-28T19:56:20.249Z,14.00
2018-11-28T19:58:47.746Z,14.10
2018-11-28T20:01:15.378Z,14.20
2018-11-28T20:03:42.848Z,13.47
2018-11-28T20:06:10.336Z,15.10
2018-11-28T20:08:37.856Z,13.47
2018-11-28T20:11:05.936Z,13.40
2018-11-28T20:13:33.361Z,13.57
2018-11-28T20:16:00.891Z,13.83
2018-11-28T20:18:28.337Z,13.27
2018-11-28T20:20:55.874Z,14.53
2018-11-28T20:23:23.352Z,13.70
2018-11-28T20:25:51.005Z,15.00
2018-11-28T20:28:18.416Z,14.63
2018-11-28T20:30:45.930Z,14.83
2018-11-28T20:33:14.901Z,13.80
2018-11-28T20:35:43.481Z,15.80
2018-11-28T20:38:43.336Z,13.80
2018-11-28T20:41:10.860Z,14.40
2018-11-28T20:43:38.387Z,14.23
2018-11-28T20:46:06.526Z,14.13
2018-11-28T20:48:34.039Z,14.60
2018-11-28T20:51:01.518Z,14.20
2018-11-28T20:53:29.193Z,15.00
2018-11-28T20:55:56.712Z,14.90
2018-11-28T20:58:24.170Z,16.70
2018-11-28T21:00:51.728Z,18.37
2018-11-28T21:03:19.326Z,15.93
2018-11-28T21:05:46.884Z,15.77
2018-11-28T21:08:14.404Z,16.90
2018-11-28T21:10:41.938Z,14.97
2018-11-28T21:13:10.916Z,15.47
2018-11-28T21:15:39.085Z,16.67
2018-11-28T21:18:07.734Z,15.60
2018-11-28T21:20:35.284Z,16.73
2018-11-28T21:23:07.711Z,16.03
2018-11-28T21:25:35.528Z,17.80
2018-11-28T21:28:04.267Z,15.93
2018-11-28T21:30:32.561Z,16.83
2018-11-28T21:33:00.160Z,16.90
2018-11-28T21:35:29.703Z,16.37
2018-11-28T21:37:57.159Z,17.10
2018-11-28T21:40:24.681Z,17.70
2018-11-28T21:42:52.124Z,17.73
2018-11-28T21:45:20.637Z,17.90
2018-11-28T21:47:48.093Z,17.10
2018-11-28T21:50:16.763Z,15.70
2018-11-28T21:52:44.258Z,17.77
2018-11-28T21:55:14.179Z,18.10
2018-11-28T21:57:41.753Z,17.60
2018-11-28T22:00:13.370Z,17.77
2018-11-28T22:02:40.880Z,17.53
2018-11-28T22:05:09.497Z,18.17
2018-11-28T22:07:37.012Z,18.90
2018-11-28T22:10:07.245Z,18.70
2018-11-28T22:12:34.681Z,17.47
2018-11-28T22:15:02.323Z,18.80
2018-11-28T22:17:29.857Z,17.83
2018-11-28T22:19:57.343Z,18.87
2018-11-28T22:22:24.817Z,20.53
2018-11-28T22:24:52.234Z,19.23
2018-11-28T22:27:19.687Z,19.37
2018-11-28T22:29:47.157Z,19.53
2018-11-28T22:32:14.629Z,20.67
2018-11-28T22:34:42.109Z,19.40
2018-11-28T22:37:09.736Z,20.27
2018-11-28T22:39:37.209Z,22.30
2018-11-28T22:42:05.022Z,21.50
2018-11-28T22:44:32.505Z,21.17
2018-11-28T22:46:59.951Z,20.20
2018-11-28T22:49:27.399Z,21.70
2018-11-28T22:51:54.983Z,21.47
2018-11-28T22:54:22.400Z,20.80
2018-11-28T22:56:49.886Z,21.57
2018-11-28T22:59:17.690Z,21.03
2018-11-28T23:02:55.667Z,21.40
2018-11-28T23:05:26.962Z,21.03
2018-11-28T23:07:55.605Z,19.13
2018-11-28T23:10:23.140Z,19.53
2018-11-28T23:12:50.900Z,17.87
2018-11-28T23:15:18.384Z,19.23
2018-11-28T23:17:45.920Z,19.37
2018-11-28T23:20:13.388Z,20.03
2018-11-28T23:22:40.919Z,19.07
2018-11-28T23:25:11.131Z,20.13
2018-11-28T23:27:38.722Z,22.00
2018-11-28T23:30:09.455Z,22.50
2018-11-28T23:32:36.949Z,19.00
2018-11-28T23:35:06.200Z,19.93
2018-11-28T23:37:33.675Z,21.10
2018-11-28T23:40:01.098Z,20.57
2018-11-28T23:42:28.635Z,20.40
2018-11-28T23:44:56.112Z,19.13
2018-11-28T23:47:24.658Z,21.97
2018-11-28T23:49:52.105Z,21.83
2018-11-28T23:52:19.553Z,21.10
2018-11-28T23:54:46.951Z,21.40
2018-11-28T23:57:14.409Z,21.67
2018-11-28T23:59:41.844Z,21.30
